METAR Data
IDs: Format: Raw Decoded Include TAF

Data at: 0902 UTC 26 Jan 2020

KEAU 260856Z AUTO 30006KT 10SM OVC007 M02/M04 A2991 RMK AO2 SLP140 T10221044 58002
KEAU 260756Z AUTO 30008KT 10SM OVC008 M02/M05 A2993 RMK AO2 SLP144 T10221050
KEAU 260656Z AUTO 31009KT 10SM OVC008 M02/M05 A2992 RMK AO2 SLP143 T10221050
KEAU 260639Z AUTO 29010KT 10SM OVC009 M02/M05 A2992 RMK AO2 T10171050
KEAU 260556Z AUTO 29007KT 10SM OVC012 M02/M05 A2992 RMK AO2 SLP142 T10171050 10011 21017 400281017 53008
KEAU 260543Z AUTO 28006KT 10SM OVC014 M02/M05 A2992 RMK AO2 T10171050
KEAU 260456Z AUTO 30008KT 10SM OVC019 M01/M05 A2991 RMK AO2 SLP138 T10111050
KEAU 260419Z AUTO 28006KT 10SM BKN020 OVC042 M01/M04 A2991 RMK AO2 T10061039
KEAU 260356Z AUTO 29006KT 10SM OVC039 00/M04 A2990 RMK AO2 SLP136 T00001039
KEAU 260256Z AUTO 29006KT 10SM OVC044 00/M03 A2990 RMK AO2 SLP133 T00001033 51003
KEAU 260156Z 27005KT 10SM FEW042 01/M03 A2989 RMK AO2 SLP132 T00061033
KEAU 260056Z 29005KT 10SM FEW014 FEW029 OVC033 01/M03 A2989 RMK AO2 SLP132 T00111028
KEAU 260041Z 29007KT 10SM SCT014 OVC035 01/M02 A2989 RMK AO2 T00111022
KEAU 260035Z 29005KT 10SM BKN014 BKN028 OVC039 01/M02 A2989 RMK AO2 T00111022
KEAU 252356Z 32006KT 10SM FEW031 OVC039 01/M03 A2989 RMK AO2 SLP130 T00111028 10028 20011 53007
KEAU 252256Z 32006KT 10SM FEW016 BKN048 OVC060 02/M03 A2988 RMK AO2 SLP126 T00171028
KEAU 252156Z 33009KT 10SM SCT018 OVC055 02/M03 A2987 RMK AO2 SLP125 T00221028
KEAU 252056Z 30008KT 10SM OVC017 02/M02 A2987 RMK AO2 SLP123 T00221022 55002
KEAU 251956Z 29010KT 10SM BKN019 OVC065 02/M02 A2986 RMK AO2 SLP121 T00221022
KEAU 251926Z 31010KT 10SM SCT016 OVC060 03/M02 A2986 RMK AO2 T00281022
KEAU 251856Z 31007KT 10SM BKN016 OVC049 03/M02 A2986 RMK AO2 SLP121 T00281017
KEAU 251756Z 33009KT 10SM OVC060 02/M02 A2987 RMK AO2 SLP125 T00221017 10022 20006 50003
KEAU 251721Z 32009KT 10SM SCT013 OVC055 02/M02 A2987 RMK AO2 T00171017
KEAU 251656Z 33008KT 10SM BKN013 BKN026 OVC049 02/M02 A2988 RMK AO2 SLP127 T00171017
KEAU 251637Z 33009KT 10SM BKN013 OVC048 02/M02 A2988 RMK AO2 T00171017
KEAU 251622Z 33008KT 10SM SCT013 OVC050 02/M02 A2988 RMK AO2 T00171017
KEAU 251556Z 33007KT 10SM OVC014 02/M02 A2987 RMK AO2 SLP125 T00171017
KEAU 251514Z 33009KT 10SM BKN012 OVC018 01/M02 A2986 RMK AO2 T00111022
KEAU 251456Z 33007KT 10SM BKN017 OVC050 01/M02 A2986 RMK AO2 SLP122 T00061022 51006
KEAU 251406Z 32007KT 10SM OVC016 01/M02 A2986 RMK AO2 T00061022
KEAU 251356Z 32008KT 10SM OVC014 01/M02 A2986 RMK AO2 SLP122 T00061022
KEAU 251256Z 32007KT 10SM BKN014 OVC055 01/M02 A2986 RMK AO2 SLP119 T00061022
KEAU 251156Z 33007KT 5SM HZ SCT010 OVC048 01/M02 A2984 RMK AO2 SNB49E55 SLP115 P0000 60000 70003 T00061022 10011 20006 51001
KEAU 251154Z 33009KT 5SM -SN SCT010 BKN046 OVC050 01/M02 A2984 RMK AO2 SNB49 P0000
KEAU 251056Z AUTO 33008KT 10SM OVC010 01/M02 A2984 RMK AO2 SNE31 SLP116 P0000 T00061017
KEAU 251041Z AUTO 32008KT 10SM OVC010 01/M02 A2985 RMK AO2 SNE31 CIG 007V014 P0000 T00061017
KEAU 251019Z AUTO 31007KT 3SM -SN BR BKN008 OVC013 01/M01 A2984 RMK AO2 CIG 006V011 P0000 T00111011
KEAU 250956Z AUTO 32009KT 3SM -SN BR BKN010 BKN015 OVC042 01/M01 A2984 RMK AO2 SNB40 SLP115 P0000 T00111011
KEAU 250947Z AUTO 32008KT 2 1/2SM -SN BR SCT010 BKN015 OVC040 01/M01 A2984 RMK AO2 SNB40 P0000 T00111011
KEAU 250856Z AUTO 33007KT 6SM BR OVC012 01/M01 A2985 RMK AO2 SLP118 60000 T00111011 56007
KEAU 250839Z AUTO 32006KT 5SM BR OVC012 01/M01 A2985 RMK AO2 T00111011
KEAU 250827Z AUTO 33007KT 5SM BR FEW009 BKN015 OVC025 01/M01 A2985 RMK AO2 T00111011
KEAU 250756Z AUTO 33006KT 6SM HZ OVC024 01/M02 A2985 RMK AO2 SNE0659B35E48 SLP119 P0000 T00111017
KEAU 250719Z AUTO 33005KT 4SM HZ FEW011 BKN022 OVC032 01/M02 A2986 RMK AO2 SNE0659 P0000 T00111017
KEAU 250656Z AUTO 34006KT 6SM -SN FEW011 SCT024 OVC042 01/M02 A2986 RMK AO2 SNE26B45 SLP122 P0000 T00111017
KEAU 250639Z AUTO 33006KT 7SM SCT021 BKN032 OVC041 01/M02 A2986 RMK AO2 SNE26 P0000 T00111017
KEAU 250630Z AUTO 33005KT 6SM BR BKN021 BKN031 OVC041 01/M01 A2987 RMK AO2 SNE26 P0000 T00111011
KEAU 250619Z AUTO 33005KT 3SM -SN BR SCT023 BKN031 OVC055 01/M01 A2987 RMK AO2 P0000 T00111011
KEAU 250609Z AUTO 32007KT 2 1/2SM -SN BR BKN030 OVC050 01/M01 A2987 RMK AO2 P0000 T00111011
KEAU 250556Z AUTO 33005KT 3SM -SN BR BKN030 OVC048 01/M01 A2987 RMK AO2 SNB33 SLP125 P0000 60000 T00111011 10017 20011 400221006 58008
KEAU 250518Z AUTO 35004KT 10SM FEW012 BKN030 OVC043 01/M01 A2988 RMK AO2 T00111011
KEAU 250456Z AUTO 35006KT 10SM BKN027 OVC034 02/M01 A2989 RMK AO2 SLP130 T00171011
KEAU 250356Z AUTO 35007KT 10SM SCT041 OVC080 02/M01 A2989 RMK AO2 SLP130 T00171011
KEAU 250340Z AUTO 36006KT 10SM SCT015 SCT044 OVC080 02/M01 A2989 RMK AO2 T00171011
KEAU 250327Z AUTO 35006KT 10SM BKN015 BKN048 OVC080 02/M01 A2989 RMK AO2 T00171011
KEAU 250319Z AUTO 35005KT 10SM BKN013 BKN022 OVC075 02/M01 A2989 RMK AO2 T00171011
KEAU 250256Z AUTO 36006KT 10SM FEW013 BKN050 OVC080 02/M01 A2990 RMK AO2 SLP133 60000 T00171011 58006
KEAU 250208Z 01006KT 9SM SCT023 OVC031 02/M01 A2990 RMK AO2 T00171011
KEAU 250156Z 36005KT 8SM BKN022 OVC030 02/M01 A2990 RMK AO2 SNE42 SLP135 P0000 T00171011
KEAU 250145Z 35007KT 8SM BKN022 OVC030 02/M01 A2991 RMK AO2 SNE42 P0000 T00171006
KEAU 250133Z 35007KT 6SM -SN BR FEW022 OVC030 02/M01 A2991 RMK AO2 P0000 T00171006
KEAU 250056Z 36005KT 5SM -SN BR OVC024 02/M01 A2991 RMK AO2 SNE2359B16 SLP139 P0000 T00171006
KEAU 242356Z 36005KT 8SM -SN OVC025 02/M01 A2991 RMK AO2 SNB13 SLP139 P0000 60001 T00171006 10022 20017 56002
KEAU 242334Z 36005KT 7SM -SN BKN023 BKN028 OVC041 02/M01 A2991 RMK AO2 SNB13 P0000 T00171006
KEAU 242303Z 34005KT 8SM SCT018 SCT035 OVC041 02/M01 A2991 RMK AO2 T00171006
KEAU 242256Z 35005KT 2SM BR SCT018 BKN032 OVC041 02/M01 A2992 RMK AO2 SNB01E28 SLP140 P0000 T00171006
KEAU 242210Z 35004KT 2SM -SN BR FEW011 OVC017 02/M01 A2992 RMK AO2 SNB01 P0000 T00171006
KEAU 242156Z 35004KT 7SM FEW010 OVC017 02/M01 A2992 RMK AO2 SLP140 T00171006